Rushville, Ohio
Current Conditions -  °F | °C
As of 4:53 AM on Sunday 21 Dec 2014 (Local Time) from KLHQ Reporting Station
Haze Haze  
Wind Chill: 34°   Ceiling: 2200
Heat Index: 34°   Visibility: 5mi
Dew Point: 27°   Wind: 0mph
Humidity: 75%   Direction: NA
Pressure: 30.29"   Gusts: NA
Location:  39.76°N, 82.43°W
Report Text: KLHQ 210953Z AUTO 00000KT 5SM HZ OVC022 01/M03 A3029 RMK AO2 SLP264 T00111028
Loading
Personal Weather Stations






























Interactive Weather Map New forecast layout! Learn more

10-Day Weather Forecast

Advertisements
Track Severe Weather on mobile